createdAt,value
2023-05-23T00:01:18.554Z,22.03
2023-05-23T00:03:47.573Z,21.95
2023-05-23T00:06:15.830Z,21.93
2023-05-23T00:08:44.054Z,21.81
2023-05-23T00:11:13.505Z,21.73
2023-05-23T00:13:42.321Z,21.71
2023-05-23T00:16:10.602Z,21.69
2023-05-23T00:18:38.585Z,21.63
2023-05-23T00:21:06.936Z,21.67
2023-05-23T00:23:35.264Z,21.68
2023-05-23T00:26:04.154Z,21.59
2023-05-23T00:28:32.264Z,21.49
2023-05-23T00:31:00.352Z,21.44
2023-05-23T00:33:29.833Z,21.42
2023-05-23T00:35:57.957Z,21.28
2023-05-23T00:38:26.890Z,21.16
2023-05-23T00:40:54.618Z,21.17
2023-05-23T00:43:23.001Z,21.10
2023-05-23T00:45:50.982Z,20.89
2023-05-23T00:48:18.861Z,20.69
2023-05-23T00:50:46.803Z,20.63
2023-05-23T00:53:14.507Z,20.71
2023-05-23T00:55:42.992Z,20.70
2023-05-23T00:58:10.446Z,20.72
2023-05-23T01:00:38.736Z,20.74
2023-05-23T01:03:07.206Z,20.67
2023-05-23T01:05:34.927Z,20.65
2023-05-23T01:08:03.462Z,20.64
2023-05-23T01:10:30.994Z,20.70
2023-05-23T01:13:31.556Z,20.68
2023-05-23T01:16:19.173Z,20.61
2023-05-23T01:18:48.005Z,20.54
2023-05-23T01:21:19.177Z,20.61
2023-05-23T01:24:17.792Z,20.66
2023-05-23T01:27:14.271Z,20.58
2023-05-23T01:29:46.213Z,20.45
2023-05-23T01:32:15.249Z,20.41
2023-05-23T01:34:42.749Z,20.34
2023-05-23T01:37:18.835Z,20.48
2023-05-23T01:39:46.621Z,20.54
2023-05-23T01:42:14.312Z,20.50
2023-05-23T01:44:42.507Z,20.48
2023-05-23T01:47:10.572Z,20.52
2023-05-23T01:49:37.851Z,20.47
2023-05-23T01:52:09.848Z,20.57
2023-05-23T01:54:38.406Z,20.75
2023-05-23T01:57:06.472Z,20.82
2023-05-23T01:59:34.901Z,20.87
2023-05-23T02:02:02.964Z,20.83
2023-05-23T02:04:31.038Z,20.75
2023-05-23T02:06:58.798Z,20.71
2023-05-23T02:09:27.298Z,20.68
2023-05-23T02:11:55.583Z,20.69
2023-05-23T02:14:24.720Z,20.68
2023-05-23T02:16:53.077Z,20.50
2023-05-23T02:19:20.940Z,20.32
2023-05-23T02:21:48.769Z,20.27
2023-05-23T02:24:17.058Z,20.17
2023-05-23T02:26:45.333Z,20.10
2023-05-23T02:29:13.772Z,19.99
2023-05-23T02:31:41.862Z,20.04
2023-05-23T02:34:09.769Z,20.15
2023-05-23T02:36:37.523Z,20.34
2023-05-23T02:39:05.706Z,20.41
2023-05-23T02:41:33.885Z,20.38
2023-05-23T02:44:01.999Z,20.43
2023-05-23T02:46:29.826Z,20.42
2023-05-23T02:48:58.322Z,20.38
2023-05-23T02:51:26.716Z,20.38
2023-05-23T02:53:54.697Z,20.42
2023-05-23T02:56:22.754Z,20.46
2023-05-23T02:58:50.470Z,20.37
2023-05-23T03:01:18.205Z,20.16
2023-05-23T03:03:46.642Z,20.01
2023-05-23T03:06:14.747Z,20.03
2023-05-23T03:08:43.037Z,20.09
2023-05-23T03:11:11.104Z,20.13
2023-05-23T03:13:38.937Z,20.21
2023-05-23T03:16:07.675Z,20.17
2023-05-23T03:18:35.716Z,20.05
2023-05-23T03:21:03.679Z,19.84
2023-05-23T03:23:31.690Z,19.81
2023-05-23T03:25:59.901Z,19.81
2023-05-23T03:28:27.825Z,19.82
2023-05-23T03:30:56.126Z,19.87
2023-05-23T03:33:24.191Z,19.90
2023-05-23T03:35:53.064Z,19.92
2023-05-23T03:38:21.307Z,19.92
2023-05-23T03:40:49.250Z,19.92
2023-05-23T03:43:17.362Z,19.89
2023-05-23T03:45:45.248Z,19.85
2023-05-23T03:48:13.033Z,19.72
2023-05-23T03:50:40.780Z,19.79
2023-05-23T03:53:08.875Z,20.01
2023-05-23T03:55:37.047Z,20.10
2023-05-23T03:58:05.131Z,20.02
2023-05-23T04:00:33.338Z,19.97
2023-05-23T04:03:01.776Z,20.01
2023-05-23T04:05:29.788Z,19.94
2023-05-23T04:07:57.756Z,19.81
2023-05-23T04:10:25.259Z,19.77
2023-05-23T04:12:53.688Z,19.93
2023-05-23T04:15:21.686Z,19.89
2023-05-23T04:17:49.722Z,20.03
2023-05-23T04:20:17.968Z,20.05
2023-05-23T04:22:45.673Z,20.24
2023-05-23T04:25:13.958Z,20.13
2023-05-23T04:27:42.808Z,20.16
2023-05-23T04:30:13.267Z,20.22
2023-05-23T04:32:40.963Z,20.19
2023-05-23T04:35:13.618Z,20.23
2023-05-23T04:37:42.630Z,20.28
2023-05-23T04:40:13.642Z,20.27
2023-05-23T04:42:44.765Z,20.29
2023-05-23T04:45:12.989Z,20.31
2023-05-23T04:47:42.167Z,20.28
2023-05-23T04:50:12.309Z,20.32
2023-05-23T04:52:40.392Z,20.41
2023-05-23T04:55:10.362Z,20.28
2023-05-23T04:57:38.966Z,20.52
2023-05-23T05:00:10.484Z,20.55
2023-05-23T05:02:39.131Z,20.51
2023-05-23T05:05:08.568Z,20.68
2023-05-23T05:07:37.067Z,20.65
2023-05-23T05:10:05.346Z,20.78
2023-05-23T05:12:33.019Z,20.87
2023-05-23T05:15:00.513Z,20.98
2023-05-23T05:17:28.298Z,21.00
2023-05-23T05:19:56.468Z,21.10
2023-05-23T05:22:25.872Z,21.06
2023-05-23T05:24:53.936Z,21.17
2023-05-23T05:27:21.638Z,21.32
2023-05-23T05:29:50.143Z,21.39
2023-05-23T05:32:17.736Z,21.48
2023-05-23T05:34:49.136Z,21.48
2023-05-23T05:37:17.101Z,21.56
2023-05-23T05:39:44.689Z,21.70
2023-05-23T05:42:12.653Z,21.84
2023-05-23T05:44:40.870Z,21.96
2023-05-23T05:47:08.863Z,22.07
2023-05-23T05:49:36.805Z,22.11
2023-05-23T05:52:05.267Z,22.20
2023-05-23T05:54:33.365Z,22.24
2023-05-23T05:57:00.600Z,22.32
2023-05-23T05:59:28.691Z,22.45
2023-05-23T06:01:57.690Z,22.66
2023-05-23T06:04:25.711Z,22.77
2023-05-23T06:06:53.303Z,22.92
2023-05-23T06:09:21.826Z,23.02
2023-05-23T06:11:49.449Z,23.03
2023-05-23T06:14:17.484Z,23.09
2023-05-23T06:16:45.855Z,23.10
2023-05-23T06:19:13.526Z,23.12
2023-05-23T06:21:41.214Z,23.20
2023-05-23T06:24:08.967Z,23.27
2023-05-23T06:26:37.726Z,23.47
2023-05-23T06:29:06.002Z,23.54
2023-05-23T06:31:33.741Z,23.69
2023-05-23T06:34:02.728Z,23.76
2023-05-23T06:36:31.810Z,23.93
2023-05-23T06:38:59.916Z,23.99
2023-05-23T06:41:27.741Z,24.08
2023-05-23T06:43:55.322Z,24.21
2023-05-23T06:46:23.561Z,24.34
2023-05-23T06:48:59.510Z,24.47
2023-05-23T06:51:34.876Z,24.60
2023-05-23T06:54:03.143Z,24.52
2023-05-23T06:56:30.792Z,24.66
2023-05-23T06:58:58.583Z,24.68
2023-05-23T07:01:27.424Z,24.82
2023-05-23T07:03:55.208Z,24.87
2023-05-23T07:06:22.119Z,24.94
2023-05-23T07:08:50.186Z,24.91
2023-05-23T07:11:18.183Z,25.00
2023-05-23T07:13:46.449Z,25.06
2023-05-23T07:16:14.058Z,25.15
2023-05-23T07:18:42.021Z,25.21
2023-05-23T07:21:10.062Z,25.27
2023-05-23T07:23:38.174Z,25.30
2023-05-23T07:26:06.166Z,25.37
2023-05-23T07:28:33.771Z,25.54
2023-05-23T07:31:01.514Z,25.63
2023-05-23T07:33:33.214Z,25.74
2023-05-23T07:36:00.952Z,25.74
2023-05-23T07:38:28.560Z,25.76
2023-05-23T07:41:09.820Z,25.85
2023-05-23T07:43:38.454Z,26.04
2023-05-23T07:46:07.166Z,26.04
2023-05-23T07:48:35.470Z,26.07
2023-05-23T07:51:03.613Z,26.11
2023-05-23T07:53:31.498Z,26.20
2023-05-23T07:55:59.134Z,26.31
2023-05-23T07:58:27.215Z,26.30
2023-05-23T08:00:55.323Z,26.31
2023-05-23T08:03:23.336Z,26.40
2023-05-23T08:05:51.474Z,26.48
2023-05-23T08:08:19.483Z,26.62
2023-05-23T08:10:47.440Z,26.61
2023-05-23T08:13:15.667Z,26.62
2023-05-23T08:15:44.287Z,26.67
2023-05-23T08:18:13.533Z,26.75
2023-05-23T08:20:42.244Z,26.88
2023-05-23T08:23:10.072Z,27.06
2023-05-23T08:25:38.019Z,27.03
2023-05-23T08:28:06.256Z,27.16
2023-05-23T08:30:34.797Z,27.30
2023-05-23T08:33:05.042Z,27.44
2023-05-23T08:35:38.313Z,27.39
2023-05-23T08:38:10.642Z,27.47
2023-05-23T08:40:38.319Z,27.47
2023-05-23T08:43:06.052Z,27.39
2023-05-23T08:45:34.553Z,27.49
2023-05-23T08:48:02.250Z,27.58
2023-05-23T08:50:30.649Z,27.61
2023-05-23T08:52:59.966Z,27.65
2023-05-23T08:55:28.856Z,27.65
2023-05-23T08:58:00.476Z,27.79
2023-05-23T09:00:28.143Z,27.92
2023-05-23T09:02:56.142Z,27.97
2023-05-23T09:05:23.922Z,27.95
2023-05-23T09:07:54.003Z,28.12
2023-05-23T09:10:22.061Z,28.16
2023-05-23T09:12:53.609Z,28.13
2023-05-23T09:15:22.487Z,28.20
2023-05-23T09:17:50.662Z,28.31
2023-05-23T09:20:18.786Z,28.36
2023-05-23T09:23:07.739Z,28.28
2023-05-23T09:25:38.927Z,28.41
2023-05-23T09:28:07.167Z,28.24
2023-05-23T09:30:35.475Z,28.28
2023-05-23T09:33:05.420Z,28.41
2023-05-23T09:35:33.707Z,28.46
2023-05-23T09:38:01.766Z,28.48
2023-05-23T09:40:33.283Z,28.68
2023-05-23T09:43:04.517Z,28.63
2023-05-23T09:45:32.624Z,28.66
2023-05-23T09:48:02.304Z,28.65
2023-05-23T09:50:34.413Z,28.82
2023-05-23T09:53:02.753Z,28.81
2023-05-23T09:55:30.710Z,28.84
2023-05-23T09:57:58.710Z,28.82
2023-05-23T10:00:26.636Z,28.89
2023-05-23T10:03:15.257Z,29.06
2023-05-23T10:05:46.140Z,29.19
2023-05-23T10:08:29.877Z,29.15
2023-05-23T10:10:57.302Z,29.07
2023-05-23T10:13:28.568Z,29.14
2023-05-23T10:16:25.064Z,29.15
2023-05-23T10:19:27.280Z,29.24
2023-05-23T10:22:01.717Z,29.26
2023-05-23T10:24:30.123Z,29.45
2023-05-23T10:26:58.182Z,29.33
2023-05-23T10:29:26.563Z,29.15
2023-05-23T10:31:53.658Z,29.40
2023-05-23T10:34:45.187Z,29.65
2023-05-23T10:37:30.499Z,29.66
2023-05-23T10:40:14.197Z,29.79
2023-05-23T10:42:46.357Z,29.70
2023-05-23T10:45:21.706Z,29.65
2023-05-23T10:47:49.713Z,29.75
2023-05-23T10:50:32.098Z,29.83
2023-05-23T10:53:02.083Z,29.71
2023-05-23T10:55:33.189Z,29.86
2023-05-23T10:58:23.116Z,29.92
2023-05-23T11:01:06.147Z,29.77
2023-05-23T11:03:49.905Z,29.85
2023-05-23T11:06:38.749Z,30.03
2023-05-23T11:09:13.998Z,30.07
2023-05-23T11:11:53.586Z,30.15
2023-05-23T11:14:43.767Z,30.14
2023-05-23T11:17:13.237Z,30.16
2023-05-23T11:19:41.708Z,30.30
2023-05-23T11:22:09.740Z,30.29
2023-05-23T11:24:55.182Z,30.45
2023-05-23T11:27:40.291Z,30.56
2023-05-23T11:30:10.085Z,30.66
2023-05-23T11:32:38.569Z,30.81
2023-05-23T11:35:09.043Z,30.86
2023-05-23T11:37:36.679Z,30.81
2023-05-23T11:40:26.297Z,31.09
2023-05-23T11:42:57.546Z,31.28
2023-05-23T11:45:25.033Z,31.50
2023-05-23T11:47:52.897Z,31.70
2023-05-23T11:50:24.502Z,31.88
2023-05-23T11:52:52.810Z,32.40
2023-05-23T11:55:21.416Z,32.67
2023-05-23T11:57:49.026Z,33.09
2023-05-23T12:00:19.282Z,33.54
2023-05-23T12:02:48.012Z,33.92
2023-05-23T12:05:16.078Z,34.60
2023-05-23T12:07:47.668Z,34.78
2023-05-23T12:10:16.374Z,35.34
2023-05-23T12:12:43.354Z,35.10
2023-05-23T12:15:12.765Z,34.95
2023-05-23T12:17:41.474Z,34.98
2023-05-23T12:20:10.244Z,35.42
2023-05-23T12:22:38.533Z,36.05
2023-05-23T12:25:09.225Z,36.38
2023-05-23T12:27:37.607Z,36.79
2023-05-23T12:30:12.282Z,37.28
2023-05-23T12:32:43.517Z,37.37
2023-05-23T12:35:34.484Z,37.11
2023-05-23T12:38:01.919Z,37.17
2023-05-23T12:40:30.014Z,37.09
2023-05-23T12:42:58.324Z,37.31
2023-05-23T12:45:55.413Z,37.28
2023-05-23T12:48:23.643Z,37.35
2023-05-23T12:50:51.525Z,37.56
2023-05-23T12:53:19.377Z,37.81
2023-05-23T12:55:47.429Z,37.95
2023-05-23T12:58:15.632Z,38.25
2023-05-23T13:00:43.960Z,38.28
2023-05-23T13:03:12.201Z,38.05
2023-05-23T13:05:40.361Z,38.09
2023-05-23T13:08:08.522Z,38.59
2023-05-23T13:10:36.595Z,39.11
2023-05-23T13:13:04.770Z,39.73
2023-05-23T13:15:32.645Z,40.18
2023-05-23T13:18:00.986Z,39.72
2023-05-23T13:20:30.454Z,39.94
2023-05-23T13:23:01.912Z,40.35
2023-05-23T13:25:28.655Z,40.44
2023-05-23T13:27:56.873Z,40.75
2023-05-23T13:30:24.912Z,41.32
2023-05-23T13:32:53.043Z,41.46
2023-05-23T13:35:20.965Z,41.42
2023-05-23T13:37:49.051Z,41.65
2023-05-23T13:40:20.573Z,41.70
2023-05-23T13:42:49.896Z,41.43
2023-05-23T13:45:18.688Z,41.71
2023-05-23T13:47:47.532Z,42.14
2023-05-23T13:50:14.752Z,42.25
2023-05-23T13:52:45.654Z,42.74
2023-05-23T13:55:15.697Z,42.84
2023-05-23T13:57:43.670Z,42.52
2023-05-23T14:00:14.606Z,41.41
2023-05-23T14:02:42.905Z,40.78
2023-05-23T14:05:11.544Z,40.49
2023-05-23T14:07:39.296Z,40.11
2023-05-23T14:10:09.739Z,40.50
2023-05-23T14:12:37.885Z,39.95
2023-05-23T14:15:08.023Z,39.90
2023-05-23T14:17:36.068Z,40.25
2023-05-23T14:20:04.712Z,40.56
2023-05-23T14:22:32.790Z,40.82
2023-05-23T14:25:00.036Z,41.47
2023-05-23T14:27:28.451Z,41.98
2023-05-23T14:29:56.075Z,42.02
2023-05-23T14:32:23.828Z,42.70
2023-05-23T14:34:51.669Z,43.19
2023-05-23T14:37:19.879Z,42.86
2023-05-23T14:39:47.691Z,43.16
2023-05-23T14:42:15.596Z,42.38
2023-05-23T14:44:43.690Z,42.00
2023-05-23T14:47:11.725Z,42.18
2023-05-23T14:49:39.907Z,41.84
2023-05-23T14:52:07.931Z,42.15
2023-05-23T14:54:35.995Z,42.62
2023-05-23T14:57:04.146Z,43.16
2023-05-23T14:59:32.669Z,43.14
2023-05-23T15:02:00.654Z,43.75
2023-05-23T15:04:28.518Z,44.35
2023-05-23T15:06:56.218Z,44.05
2023-05-23T15:09:24.176Z,43.32
2023-05-23T15:11:52.395Z,42.88
2023-05-23T15:14:20.033Z,43.19
2023-05-23T15:16:48.904Z,43.40
2023-05-23T15:19:17.295Z,43.54
2023-05-23T15:21:51.001Z,43.16
2023-05-23T15:24:18.792Z,43.52
2023-05-23T15:26:47.530Z,43.69
2023-05-23T15:29:18.258Z,43.43
2023-05-23T15:31:46.213Z,43.65
2023-05-23T15:34:13.882Z,43.56
2023-05-23T15:36:41.975Z,43.43
2023-05-23T15:39:10.337Z,43.70
2023-05-23T15:41:38.380Z,43.28
2023-05-23T15:44:06.353Z,43.05
2023-05-23T15:46:34.553Z,42.95
2023-05-23T15:49:10.564Z,43.07
2023-05-23T15:51:49.999Z,42.83
2023-05-23T15:54:18.069Z,42.62
2023-05-23T15:56:45.810Z,42.59
2023-05-23T15:59:13.792Z,41.99
2023-05-23T16:01:41.975Z,42.19
2023-05-23T16:04:10.222Z,41.17
2023-05-23T16:06:39.071Z,40.03
2023-05-23T16:09:06.983Z,39.21
2023-05-23T16:11:35.224Z,38.51
2023-05-23T16:14:03.254Z,37.87
2023-05-23T16:16:31.316Z,37.52
2023-05-23T16:18:59.361Z,37.02
2023-05-23T16:21:27.504Z,36.66
2023-05-23T16:23:56.259Z,36.29
2023-05-23T16:26:23.871Z,36.12
2023-05-23T16:28:51.732Z,35.78
2023-05-23T16:31:19.342Z,35.60
2023-05-23T16:33:47.429Z,35.48
2023-05-23T16:36:15.565Z,35.25
2023-05-23T16:38:43.382Z,35.28
2023-05-23T16:41:11.175Z,35.25
2023-05-23T16:43:39.295Z,35.22
2023-05-23T16:46:07.633Z,35.26
2023-05-23T16:48:35.806Z,35.31
2023-05-23T16:51:03.919Z,35.51
2023-05-23T16:53:31.878Z,35.59
2023-05-23T16:56:00.122Z,35.44
2023-05-23T16:58:27.720Z,35.24
2023-05-23T17:00:56.271Z,34.90
2023-05-23T17:03:24.431Z,34.65
2023-05-23T17:05:52.401Z,34.50
2023-05-23T17:08:20.376Z,34.36
2023-05-23T17:10:48.500Z,34.12
2023-05-23T17:13:16.273Z,33.89
2023-05-23T17:15:45.027Z,33.63
2023-05-23T17:18:12.844Z,33.42
2023-05-23T17:20:41.192Z,33.20
2023-05-23T17:23:10.955Z,32.99
2023-05-23T17:25:39.993Z,32.81
2023-05-23T17:28:08.324Z,32.68
2023-05-23T17:30:36.410Z,32.53
2023-05-23T17:33:05.005Z,32.38
2023-05-23T17:35:33.036Z,32.21
2023-05-23T17:38:02.543Z,32.10
2023-05-23T17:40:30.185Z,32.08
2023-05-23T17:42:58.230Z,32.01
2023-05-23T17:45:26.336Z,31.90
2023-05-23T17:47:53.919Z,31.86
2023-05-23T17:50:22.908Z,31.76
2023-05-23T17:52:50.796Z,31.76
2023-05-23T17:55:18.612Z,31.74
2023-05-23T17:57:46.575Z,31.67
2023-05-23T18:00:16.396Z,31.80
2023-05-23T18:02:44.846Z,32.14
2023-05-23T18:05:12.776Z,32.61
2023-05-23T18:07:41.196Z,32.94
2023-05-23T18:10:11.770Z,32.75
2023-05-23T18:12:39.813Z,32.35
2023-05-23T18:15:10.305Z,31.84
2023-05-23T18:17:38.009Z,31.43
2023-05-23T18:20:08.653Z,31.10
2023-05-23T18:22:36.415Z,30.81
2023-05-23T18:25:04.453Z,30.52
2023-05-23T18:27:32.543Z,30.29
2023-05-23T18:30:00.532Z,30.11
2023-05-23T18:32:28.540Z,29.99
2023-05-23T18:34:56.690Z,29.76
2023-05-23T18:37:24.434Z,29.50
2023-05-23T18:39:52.519Z,29.38
2023-05-23T18:42:20.287Z,29.27
2023-05-23T18:44:47.988Z,29.06
2023-05-23T18:47:15.547Z,28.95
2023-05-23T18:49:43.596Z,28.84
2023-05-23T18:52:11.153Z,28.67
2023-05-23T18:54:39.263Z,28.55
2023-05-23T18:57:07.405Z,28.46
2023-05-23T18:59:35.437Z,28.34
2023-05-23T19:02:03.641Z,28.19
2023-05-23T19:04:31.347Z,28.16
2023-05-23T19:07:00.048Z,28.11
2023-05-23T19:09:28.225Z,28.07
2023-05-23T19:11:56.057Z,28.02
2023-05-23T19:14:24.665Z,27.97
2023-05-23T19:16:55.271Z,27.87
2023-05-23T19:19:26.831Z,27.77
2023-05-23T19:22:00.890Z,27.71
2023-05-23T19:24:32.187Z,27.59
2023-05-23T19:27:05.364Z,27.43
2023-05-23T19:29:33.528Z,27.26
2023-05-23T19:32:01.370Z,27.00
2023-05-23T19:34:29.269Z,26.80
2023-05-23T19:36:58.531Z,26.62
2023-05-23T19:39:26.495Z,26.61
2023-05-23T19:41:54.638Z,26.65
2023-05-23T19:44:23.345Z,26.68
2023-05-23T19:46:51.644Z,26.62
2023-05-23T19:49:20.209Z,26.58
2023-05-23T19:51:49.686Z,26.65
2023-05-23T19:54:20.178Z,26.60
2023-05-23T19:56:48.051Z,26.37
2023-05-23T19:59:15.980Z,26.13
2023-05-23T20:01:44.177Z,26.04
2023-05-23T20:04:14.221Z,26.04
2023-05-23T20:06:44.277Z,26.04
2023-05-23T20:09:17.786Z,26.01
2023-05-23T20:11:45.596Z,26.13
2023-05-23T20:14:17.586Z,26.25
2023-05-23T20:16:49.813Z,26.31
2023-05-23T20:19:17.702Z,26.38
2023-05-23T20:21:49.723Z,26.45
2023-05-23T20:24:19.168Z,26.57
2023-05-23T20:26:46.792Z,26.57
2023-05-23T20:29:14.700Z,26.60
2023-05-23T20:31:44.502Z,26.45
2023-05-23T20:34:16.025Z,26.42
2023-05-23T20:36:44.191Z,26.47
2023-05-23T20:39:11.822Z,26.38
2023-05-23T20:41:42.843Z,26.40
2023-05-23T20:44:14.110Z,26.38
2023-05-23T20:46:42.602Z,26.35
2023-05-23T20:49:11.238Z,26.37
2023-05-23T20:51:39.067Z,26.33
2023-05-23T20:54:07.674Z,26.25
2023-05-23T20:56:35.576Z,26.21
2023-05-23T20:59:04.554Z,26.20
2023-05-23T21:01:33.386Z,26.18
2023-05-23T21:04:01.251Z,26.13
2023-05-23T21:06:29.129Z,26.14
2023-05-23T21:08:57.272Z,26.06
2023-05-23T21:11:25.299Z,26.02
2023-05-23T21:13:53.414Z,25.97
2023-05-23T21:16:21.449Z,25.87
2023-05-23T21:18:49.231Z,25.76
2023-05-23T21:21:16.936Z,25.71
2023-05-23T21:23:44.478Z,25.71
2023-05-23T21:26:12.964Z,25.70
2023-05-23T21:28:40.540Z,25.68
2023-05-23T21:31:08.526Z,25.70
2023-05-23T21:33:36.611Z,25.72
2023-05-23T21:36:04.894Z,25.64
2023-05-23T21:38:32.766Z,25.55
2023-05-23T21:41:00.652Z,25.53
2023-05-23T21:43:28.726Z,25.54
2023-05-23T21:45:56.819Z,25.49
2023-05-23T21:51:00.152Z,25.49
2023-05-23T21:53:28.516Z,25.53
2023-05-23T21:55:57.125Z,25.35
2023-05-23T21:58:25.439Z,25.29
2023-05-23T22:00:53.487Z,25.23
2023-05-23T22:03:21.698Z,25.17
2023-05-23T22:05:49.806Z,25.22
2023-05-23T22:08:17.994Z,25.21
2023-05-23T22:10:46.199Z,25.00
2023-05-23T22:13:14.150Z,25.05
2023-05-23T22:15:42.275Z,24.90
2023-05-23T22:18:10.221Z,24.90
2023-05-23T22:20:39.241Z,24.87
2023-05-23T22:23:07.881Z,24.87
2023-05-23T22:25:38.607Z,24.82
2023-05-23T22:28:06.305Z,24.82
2023-05-23T22:30:34.377Z,24.80
2023-05-23T22:33:02.506Z,24.79
2023-05-23T22:35:30.520Z,24.78
2023-05-23T22:37:59.056Z,24.77
2023-05-23T22:40:27.211Z,24.70
2023-05-23T22:42:54.895Z,24.65
2023-05-23T22:45:22.972Z,24.74
2023-05-23T22:47:54.126Z,24.72
2023-05-23T22:50:22.750Z,24.70
2023-05-23T22:52:50.734Z,24.75
2023-05-23T22:55:18.823Z,24.71
2023-05-23T22:57:47.205Z,24.73
2023-05-23T23:00:16.280Z,24.67
2023-05-23T23:02:44.634Z,24.64
2023-05-23T23:05:12.327Z,24.60
2023-05-23T23:07:40.424Z,24.61
2023-05-23T23:10:10.255Z,24.54
2023-05-23T23:12:38.047Z,24.49
2023-05-23T23:15:07.598Z,24.42
2023-05-23T23:17:35.217Z,24.34
2023-05-23T23:20:04.364Z,24.29
2023-05-23T23:22:32.607Z,24.22
2023-05-23T23:25:02.178Z,24.15
2023-05-23T23:27:31.797Z,24.09
2023-05-23T23:29:59.769Z,24.09
2023-05-23T23:32:27.495Z,24.15
2023-05-23T23:34:55.168Z,24.17
2023-05-23T23:37:24.625Z,24.22
2023-05-23T23:39:52.640Z,24.17
2023-05-23T23:42:20.510Z,24.14
2023-05-23T23:44:48.324Z,24.14
2023-05-23T23:47:16.248Z,24.14
2023-05-23T23:49:44.250Z,24.00
2023-05-23T23:52:12.863Z,24.02
2023-05-23T23:54:40.474Z,23.87
2023-05-23T23:57:13.743Z,23.89
2023-05-23T23:59:41.765Z,23.88
